createdAt,value
2023-03-01T00:01:42.012Z,19.95
2023-03-01T00:04:11.270Z,20.30
2023-03-01T00:06:39.028Z,20.02
2023-03-01T00:09:08.412Z,18.48
2023-03-01T00:11:35.159Z,20.02
2023-03-01T00:14:08.502Z,23.33
2023-03-01T00:16:41.776Z,23.58
2023-03-01T00:19:16.017Z,23.88
2023-03-01T00:21:46.037Z,21.85
2023-03-01T00:24:12.828Z,22.80
2023-03-01T00:26:39.650Z,22.63
2023-03-01T00:29:07.451Z,18.27
2023-03-01T00:31:37.472Z,17.70
2023-03-01T00:34:08.341Z,20.50
2023-03-01T00:36:36.925Z,18.30
2023-03-01T00:39:05.775Z,16.67
2023-03-01T00:41:35.053Z,19.48
2023-03-01T00:44:04.403Z,21.63
2023-03-01T00:46:31.455Z,17.88
2023-03-01T00:49:02.250Z,24.38
2023-03-01T00:51:30.537Z,23.60
2023-03-01T00:53:59.944Z,18.77
2023-03-01T00:56:27.196Z,44.67
2023-03-01T00:58:53.937Z,32.78
2023-03-01T01:01:27.374Z,17.50
2023-03-01T01:03:57.174Z,18.63
2023-03-01T01:06:30.989Z,16.50
2023-03-01T01:08:59.051Z,16.38
2023-03-01T01:11:27.536Z,18.92
2023-03-01T01:13:54.726Z,15.65
2023-03-01T01:16:27.487Z,16.33
2023-03-01T01:18:54.554Z,16.60
2023-03-01T01:21:23.112Z,15.27
2023-03-01T01:23:55.667Z,17.13
2023-03-01T01:26:31.547Z,22.23
2023-03-01T01:28:58.774Z,15.60
2023-03-01T01:31:26.681Z,16.83
2023-03-01T01:33:58.498Z,15.57
2023-03-01T01:36:25.185Z,16.77
2023-03-01T01:38:52.012Z,17.25
2023-03-01T01:41:22.284Z,18.70
2023-03-01T01:44:10.371Z,18.67
2023-03-01T01:46:42.646Z,15.55
2023-03-01T01:49:17.787Z,19.48
2023-03-01T01:51:51.530Z,13.88
2023-03-01T01:54:28.547Z,19.48
2023-03-01T02:00:08.245Z,17.52
2023-03-01T02:03:07.470Z,19.80
2023-03-01T02:05:55.458Z,18.50
2023-03-01T02:08:26.626Z,15.95
2023-03-01T02:10:59.921Z,16.52
2023-03-01T02:13:27.954Z,20.25
2023-03-01T02:15:55.244Z,20.15
2023-03-01T02:18:25.609Z,22.65
2023-03-01T02:20:52.318Z,19.08
2023-03-01T02:23:19.013Z,19.85
2023-03-01T02:26:06.670Z,17.20
2023-03-01T02:28:38.959Z,18.60
2023-03-01T02:31:26.574Z,19.30
2023-03-01T02:33:54.336Z,17.20
2023-03-01T02:36:29.559Z,20.05
2023-03-01T02:39:04.697Z,20.25
2023-03-01T02:41:35.559Z,16.08
2023-03-01T02:44:04.261Z,22.08
2023-03-01T02:46:31.309Z,17.25
2023-03-01T02:49:17.962Z,16.73
2023-03-01T02:52:12.102Z,20.77
2023-03-01T02:54:55.191Z,18.08
2023-03-01T02:57:25.072Z,16.40
2023-03-01T02:59:56.128Z,17.70
2023-03-01T03:02:38.771Z,20.48
2023-03-01T03:05:16.101Z,18.70
2023-03-01T03:07:46.715Z,19.55
2023-03-01T03:10:19.719Z,15.73
2023-03-01T03:13:03.679Z,19.20
2023-03-01T03:15:36.298Z,20.98
2023-03-01T03:18:11.770Z,22.17
2023-03-01T03:20:40.988Z,19.75
2023-03-01T03:23:12.444Z,20.45
2023-03-01T03:25:39.519Z,16.02
2023-03-01T03:28:10.899Z,21.73
2023-03-01T03:30:40.387Z,21.40
2023-03-01T03:33:13.636Z,21.00
2023-03-01T03:36:06.692Z,24.35
2023-03-01T03:38:33.472Z,18.67
2023-03-01T03:41:05.596Z,23.33
2023-03-01T03:43:34.841Z,20.08
2023-03-01T03:46:06.513Z,19.33
2023-03-01T03:48:58.685Z,22.90
2023-03-01T03:51:28.405Z,21.50
2023-03-01T03:53:55.025Z,21.80
2023-03-01T03:56:28.396Z,18.35
2023-03-01T03:59:21.859Z,19.33
2023-03-01T04:01:49.862Z,18.17
2023-03-01T04:04:19.231Z,18.98
2023-03-01T04:06:45.998Z,19.88
2023-03-01T04:09:15.095Z,20.13
2023-03-01T04:11:42.007Z,22.75
2023-03-01T04:14:08.758Z,23.25
2023-03-01T04:16:40.800Z,19.25
2023-03-01T04:19:15.799Z,22.10
2023-03-01T04:21:44.769Z,20.08
2023-03-01T04:24:11.422Z,22.88
2023-03-01T04:26:38.123Z,22.55
2023-03-01T04:29:04.930Z,23.45
2023-03-01T04:31:31.630Z,22.40
2023-03-01T04:33:58.258Z,19.52
2023-03-01T04:36:28.978Z,23.85
2023-03-01T04:38:58.288Z,23.77
2023-03-01T04:41:26.052Z,23.65
2023-03-01T04:44:04.874Z,22.77
2023-03-01T04:46:31.936Z,19.48
2023-03-01T04:48:58.763Z,22.42
2023-03-01T04:51:25.385Z,24.58
2023-03-01T04:53:51.976Z,22.98
2023-03-01T04:56:18.905Z,22.80
2023-03-01T04:58:46.880Z,23.02
2023-03-01T05:01:17.550Z,22.85
2023-03-01T05:03:46.233Z,27.70
2023-03-01T05:06:14.567Z,20.95
2023-03-01T05:08:43.156Z,21.10
2023-03-01T05:11:13.012Z,22.58
2023-03-01T05:13:40.393Z,21.75
2023-03-01T05:16:11.534Z,18.02
2023-03-01T05:18:41.433Z,20.90
2023-03-01T05:21:12.238Z,24.63
2023-03-01T05:23:39.860Z,24.70
2023-03-01T05:26:27.499Z,27.35
2023-03-01T05:28:58.972Z,24.35
2023-03-01T05:31:38.813Z,31.88
2023-03-01T05:34:07.956Z,24.00
2023-03-01T05:36:35.989Z,23.33
2023-03-01T05:39:05.215Z,23.27
2023-03-01T05:41:32.689Z,21.85
2023-03-01T05:43:59.711Z,28.05
2023-03-01T05:46:27.171Z,22.15
2023-03-01T05:48:58.516Z,24.60
2023-03-01T05:51:27.222Z,23.60
2023-03-01T05:53:56.259Z,22.65
2023-03-01T05:56:25.125Z,24.30
2023-03-01T05:58:57.170Z,27.60
2023-03-01T06:01:39.404Z,28.55
2023-03-01T06:04:13.511Z,25.67
2023-03-01T06:06:47.615Z,30.50
2023-03-01T06:09:46.374Z,36.15
2023-03-01T06:12:16.510Z,57.42
2023-03-01T06:14:45.499Z,42.17
2023-03-01T06:17:16.242Z,29.05
2023-03-01T06:20:07.366Z,26.10
2023-03-01T06:22:36.328Z,23.08
2023-03-01T06:25:06.458Z,25.60
2023-03-01T06:27:39.134Z,27.23
2023-03-01T06:30:12.738Z,19.98
2023-03-01T06:32:46.135Z,26.92
2023-03-01T06:35:28.679Z,25.92
2023-03-01T06:38:34.368Z,25.38
2023-03-01T06:41:03.176Z,20.73
2023-03-01T06:43:30.732Z,24.13
2023-03-01T06:46:07.237Z,23.95
2023-03-01T06:48:37.222Z,27.85
2023-03-01T06:51:08.368Z,27.08
2023-03-01T06:53:40.647Z,26.52
2023-03-01T06:56:09.118Z,25.55
2023-03-01T06:58:43.744Z,23.85
2023-03-01T07:01:13.274Z,24.70
2023-03-01T07:03:41.343Z,25.05
2023-03-01T07:06:10.419Z,26.83
2023-03-01T07:08:44.116Z,31.55
2023-03-01T07:11:23.591Z,27.92
2023-03-01T07:13:50.969Z,27.33
2023-03-01T07:19:16.000Z,21.10
2023-03-01T07:21:42.762Z,22.80
2023-03-01T07:24:10.058Z,26.83
2023-03-01T07:26:37.609Z,21.98
2023-03-01T07:29:13.077Z,21.83
2023-03-01T07:31:45.232Z,29.77
2023-03-01T07:34:13.076Z,27.10
2023-03-01T07:36:43.482Z,34.90
2023-03-01T07:39:12.421Z,26.85
2023-03-01T07:41:41.862Z,27.00
2023-03-01T07:44:14.749Z,25.58
2023-03-01T07:46:44.485Z,28.90
2023-03-01T07:49:15.695Z,27.20
2023-03-01T07:52:00.724Z,29.27
2023-03-01T07:54:28.335Z,24.42
2023-03-01T07:56:57.268Z,28.48
2023-03-01T07:59:34.185Z,30.52
2023-03-01T08:02:05.167Z,31.30
2023-03-01T08:04:38.499Z,26.00
2023-03-01T08:07:06.868Z,26.73
2023-03-01T08:09:38.385Z,26.25
2023-03-01T08:14:57.450Z,22.65
2023-03-01T08:17:27.511Z,27.80
2023-03-01T08:19:54.234Z,25.98
2023-03-01T08:22:23.974Z,28.27
2023-03-01T08:24:56.478Z,27.05
2023-03-01T08:30:20.884Z,25.05
2023-03-01T08:32:48.602Z,26.90
2023-03-01T08:35:16.233Z,27.27
2023-03-01T08:37:43.866Z,25.95
2023-03-01T08:40:14.266Z,26.50
2023-03-01T08:42:45.269Z,28.33
2023-03-01T08:45:21.264Z,27.95
2023-03-01T08:47:53.519Z,26.33
2023-03-01T08:50:20.776Z,26.17
2023-03-01T08:52:48.954Z,26.67
2023-03-01T08:55:20.198Z,28.95
2023-03-01T08:57:49.615Z,24.17
2023-03-01T09:00:21.797Z,25.27
2023-03-01T09:03:01.924Z,30.45
2023-03-01T09:05:37.430Z,27.48
2023-03-01T09:08:12.228Z,30.98
2023-03-01T09:10:39.897Z,29.75
2023-03-01T09:13:06.802Z,23.73
2023-03-01T09:15:54.085Z,30.75
2023-03-01T09:18:20.933Z,28.58
2023-03-01T09:21:04.690Z,27.20
2023-03-01T09:23:36.894Z,30.20
2023-03-01T09:26:10.085Z,25.13
2023-03-01T09:28:40.482Z,36.10
2023-03-01T09:31:07.490Z,28.10
2023-03-01T09:36:46.523Z,28.88
2023-03-01T09:39:19.215Z,29.77
2023-03-01T09:42:11.023Z,29.00
2023-03-01T09:44:48.393Z,28.70
2023-03-01T09:47:29.206Z,24.83
2023-03-01T09:50:19.257Z,28.80
2023-03-01T09:53:04.542Z,24.55
2023-03-01T09:56:33.100Z,23.52
2023-03-01T09:59:31.759Z,27.27
2023-03-01T10:02:44.071Z,31.25
2023-03-01T10:06:06.881Z,27.35
2023-03-01T10:14:52.105Z,27.23
2023-03-01T10:33:32.454Z,23.95
2023-03-01T10:36:02.859Z,28.08
2023-03-01T10:38:48.861Z,29.30
2023-03-01T10:41:19.886Z,21.92
2023-03-01T10:44:02.544Z,24.92
2023-03-01T10:46:37.178Z,24.60
2023-03-01T10:49:23.494Z,27.92
2023-03-01T10:52:25.139Z,21.83
2023-03-01T10:55:34.440Z,28.67
2023-03-01T10:58:23.144Z,27.00
2023-03-01T11:01:02.633Z,20.35
2023-03-01T11:04:08.152Z,29.55
2023-03-01T11:06:37.639Z,25.67
2023-03-01T11:09:17.464Z,26.63
2023-03-01T11:11:45.255Z,28.33
2023-03-01T11:14:42.483Z,32.20
2023-03-01T11:17:54.538Z,22.52
2023-03-01T11:20:42.758Z,25.20
2023-03-01T11:23:22.703Z,24.90
2023-03-01T11:26:16.203Z,29.95
2023-03-01T11:28:56.631Z,22.33
2023-03-01T11:31:25.041Z,23.48
2023-03-01T11:34:00.011Z,30.30
2023-03-01T11:37:00.459Z,21.25
2023-03-01T11:39:29.311Z,24.07
2023-03-01T11:42:36.826Z,26.60
2023-03-01T11:48:09.068Z,28.98
2023-03-01T11:50:51.789Z,25.42
2023-03-01T11:54:18.229Z,25.95
2023-03-01T11:56:56.685Z,21.92
2023-03-01T11:59:55.836Z,25.60
2023-03-01T12:02:54.656Z,26.15
2023-03-01T12:06:22.292Z,24.05
2023-03-01T12:09:15.545Z,26.02
2023-03-01T12:12:10.731Z,25.70
2023-03-01T12:18:09.398Z,30.35
2023-03-01T12:21:23.134Z,23.10
2023-03-01T12:24:39.114Z,23.83
2023-03-01T12:27:20.132Z,22.75
2023-03-01T12:30:19.510Z,27.90
2023-03-01T12:36:31.939Z,26.33
2023-03-01T12:39:50.432Z,26.05
2023-03-01T12:42:50.550Z,25.63
2023-03-01T12:46:02.551Z,24.60
2023-03-01T12:54:40.818Z,25.75
2023-03-01T13:00:32.334Z,25.25
2023-03-01T13:10:04.750Z,23.40
2023-03-01T13:12:56.979Z,23.80
2023-03-01T13:15:26.747Z,23.83
2023-03-01T13:18:12.822Z,25.42
2023-03-01T13:20:49.801Z,26.75
2023-03-01T13:23:30.283Z,29.55
2023-03-01T13:26:46.247Z,26.17
2023-03-01T13:35:23.433Z,27.10
2023-03-01T13:38:49.283Z,23.10
2023-03-01T13:44:47.897Z,36.13
2023-03-01T13:47:29.699Z,21.60
2023-03-01T13:59:20.693Z,27.40
2023-03-01T14:02:01.145Z,22.75
2023-03-01T14:05:00.131Z,23.13
2023-03-01T14:07:53.881Z,19.67
2023-03-01T14:11:10.166Z,22.08
2023-03-01T14:17:00.640Z,26.83
2023-03-01T14:19:35.255Z,23.55
2023-03-01T14:22:27.672Z,21.33
2023-03-01T14:25:10.574Z,22.85
2023-03-01T14:27:45.282Z,21.50
2023-03-01T14:30:26.301Z,27.33
2023-03-01T14:33:29.573Z,21.10
2023-03-01T14:36:03.637Z,19.77
2023-03-01T14:38:39.287Z,22.58
2023-03-01T14:44:38.308Z,23.92
2023-03-01T14:47:55.888Z,21.00
2023-03-01T14:50:45.310Z,22.23
2023-03-01T14:53:50.920Z,25.60
2023-03-01T14:56:28.197Z,23.17
2023-03-01T14:59:26.161Z,21.98
2023-03-01T15:02:00.752Z,29.85
2023-03-01T15:04:34.120Z,23.35
2023-03-01T15:07:05.857Z,21.48
2023-03-01T15:09:53.421Z,19.67
2023-03-01T15:12:42.138Z,23.17
2023-03-01T15:15:42.628Z,19.95
2023-03-01T15:18:30.522Z,22.65
2023-03-01T15:21:10.607Z,21.40
2023-03-01T15:23:53.313Z,24.95
2023-03-01T15:29:56.891Z,34.10
2023-03-01T15:32:44.316Z,66.22
2023-03-01T15:35:37.100Z,25.63
2023-03-01T15:44:06.479Z,27.05
2023-03-01T15:46:51.016Z,49.20
2023-03-01T15:49:54.964Z,68.75
2023-03-01T15:52:45.760Z,35.72
2023-03-01T15:55:39.314Z,23.25
2023-03-01T16:02:01.835Z,24.10
2023-03-01T16:04:30.669Z,21.27
2023-03-01T16:07:02.865Z,25.80
2023-03-01T16:09:47.341Z,22.00
2023-03-01T16:12:21.681Z,22.05
2023-03-01T16:14:53.275Z,22.15
2023-03-01T16:17:20.594Z,21.10
2023-03-01T16:19:48.589Z,26.05
2023-03-01T16:22:15.917Z,21.25
2023-03-01T16:24:43.304Z,21.92
2023-03-01T16:30:08.511Z,22.63
2023-03-01T16:32:44.632Z,20.80
2023-03-01T16:35:13.864Z,20.63
2023-03-01T16:37:45.337Z,22.38
2023-03-01T16:40:29.034Z,20.35
2023-03-01T16:43:32.305Z,26.42
2023-03-01T16:46:32.901Z,52.80
2023-03-01T16:49:00.409Z,27.98
2023-03-01T16:51:49.190Z,22.90
2023-03-01T16:57:46.313Z,24.55
2023-03-01T17:24:43.049Z,25.38
2023-03-01T17:27:16.735Z,22.08
2023-03-01T17:29:44.985Z,40.85
2023-03-01T17:32:17.454Z,24.00
2023-03-01T17:35:07.420Z,46.47
2023-03-01T17:37:38.715Z,29.23
2023-03-01T17:40:11.054Z,21.80
2023-03-01T17:42:39.924Z,22.77
2023-03-01T17:45:08.243Z,27.35
2023-03-01T17:47:35.282Z,21.58
2023-03-01T17:50:03.140Z,24.88
2023-03-01T17:52:37.248Z,19.23
2023-03-01T17:55:06.284Z,28.58
2023-03-01T17:57:41.261Z,59.50
2023-03-01T18:00:13.844Z,192.90
2023-03-01T18:03:00.134Z,248.55
2023-03-01T18:05:32.111Z,305.85
2023-03-01T18:08:03.132Z,101.03
2023-03-01T18:10:41.248Z,43.63
2023-03-01T18:13:23.699Z,34.72
2023-03-01T18:15:50.480Z,37.08
2023-03-01T18:18:17.208Z,46.17
2023-03-01T18:20:56.899Z,48.38
2023-03-01T18:23:26.470Z,58.60
2023-03-01T18:26:02.121Z,95.65
2023-03-01T18:28:32.470Z,96.70
2023-03-01T18:31:04.561Z,96.28
2023-03-01T18:33:31.810Z,90.97
2023-03-01T18:36:00.417Z,82.35
2023-03-01T18:38:28.438Z,70.20
2023-03-01T18:41:00.631Z,87.65
2023-03-01T18:43:32.820Z,105.90
2023-03-01T18:45:59.898Z,71.57
2023-03-01T18:48:42.188Z,74.90
2023-03-01T18:51:15.939Z,86.20
2023-03-01T18:53:47.933Z,121.72
2023-03-01T18:56:19.680Z,105.63
2023-03-01T18:58:48.784Z,85.32
2023-03-01T19:01:22.381Z,130.52
2023-03-01T19:03:51.898Z,144.07
2023-03-01T19:06:20.630Z,239.30
2023-03-01T19:08:48.238Z,153.07
2023-03-01T19:11:16.980Z,124.30
2023-03-01T19:13:47.466Z,102.00
2023-03-01T19:16:17.562Z,59.53
2023-03-01T19:18:51.082Z,46.47
2023-03-01T19:21:27.562Z,33.60
2023-03-01T19:23:56.568Z,34.25
2023-03-01T19:26:27.099Z,39.60
2023-03-01T19:28:55.855Z,34.97
2023-03-01T19:31:28.867Z,39.45
2023-03-01T19:34:10.028Z,43.13
2023-03-01T19:36:41.836Z,41.85
2023-03-01T19:39:12.870Z,43.38
2023-03-01T19:42:05.073Z,39.53
2023-03-01T19:44:35.246Z,52.50
2023-03-01T19:47:03.091Z,44.92
2023-03-01T19:49:30.209Z,38.42
2023-03-01T19:51:57.078Z,40.45
2023-03-01T19:54:27.351Z,41.63
2023-03-01T19:56:55.416Z,41.13
2023-03-01T19:59:26.913Z,42.25
2023-03-01T20:01:54.202Z,40.88
2023-03-01T20:04:23.569Z,37.47
2023-03-01T20:06:50.419Z,40.85
2023-03-01T20:09:22.149Z,36.42
2023-03-01T20:11:53.694Z,41.15
2023-03-01T20:14:23.349Z,32.63
2023-03-01T20:16:53.489Z,37.20
2023-03-01T20:19:23.510Z,35.10
2023-03-01T20:21:51.221Z,35.67
2023-03-01T20:24:18.114Z,40.47
2023-03-01T20:26:46.183Z,44.25
2023-03-01T20:29:13.248Z,57.25
2023-03-01T20:31:43.001Z,62.80
2023-03-01T20:34:14.076Z,58.25
2023-03-01T20:36:42.149Z,57.38
2023-03-01T20:39:11.095Z,59.88
2023-03-01T20:41:40.144Z,44.88
2023-03-01T20:44:09.775Z,45.05
2023-03-01T20:46:38.257Z,39.33
2023-03-01T20:49:05.706Z,39.45
2023-03-01T20:51:32.406Z,41.35
2023-03-01T20:53:59.355Z,39.80
2023-03-01T20:56:29.396Z,44.40
2023-03-01T20:59:08.649Z,37.20
2023-03-01T21:01:39.177Z,34.20
2023-03-01T21:04:09.596Z,35.42
2023-03-01T21:06:38.308Z,38.10
2023-03-01T21:09:11.247Z,32.83
2023-03-01T21:11:41.284Z,31.30
2023-03-01T21:14:09.234Z,29.30
2023-03-01T21:16:36.732Z,29.67
2023-03-01T21:19:04.143Z,22.15
2023-03-01T21:21:31.280Z,26.70
2023-03-01T21:23:58.464Z,28.13
2023-03-01T21:26:27.583Z,22.77
2023-03-01T21:29:00.791Z,25.08
2023-03-01T21:31:54.332Z,29.73
2023-03-01T21:34:31.789Z,30.42
2023-03-01T21:36:59.572Z,28.02
2023-03-01T21:39:28.226Z,25.65
2023-03-01T21:41:59.315Z,33.22
2023-03-01T21:44:32.987Z,41.17
2023-03-01T21:47:03.537Z,38.20
2023-03-01T21:49:31.486Z,33.83
2023-03-01T21:52:00.241Z,32.40
2023-03-01T21:54:29.115Z,29.95
2023-03-01T21:56:59.640Z,28.52
2023-03-01T21:59:28.955Z,27.55
2023-03-01T22:01:55.739Z,31.63
2023-03-01T22:04:25.117Z,31.33
2023-03-01T22:07:00.407Z,31.25
2023-03-01T22:12:02.860Z,25.27
2023-03-01T22:14:31.730Z,31.95
2023-03-01T22:16:58.534Z,31.20
2023-03-01T22:19:31.430Z,29.00
2023-03-01T22:21:58.463Z,34.10
2023-03-01T22:24:28.084Z,25.98
2023-03-01T22:26:56.504Z,33.50
2023-03-01T22:29:28.301Z,22.55
2023-03-01T22:31:56.672Z,29.38
2023-03-01T22:34:27.264Z,29.02
2023-03-01T22:36:54.005Z,31.88
2023-03-01T22:39:26.159Z,29.73
2023-03-01T22:41:53.990Z,31.48
2023-03-01T22:44:22.111Z,36.33
2023-03-01T22:46:49.180Z,31.90
2023-03-01T22:49:17.172Z,29.77
2023-03-01T22:51:46.701Z,32.22
2023-03-01T22:54:14.386Z,30.67
2023-03-01T22:56:46.356Z,27.45
2023-03-01T22:59:18.213Z,37.92
2023-03-01T23:01:47.628Z,31.83
2023-03-01T23:04:16.408Z,35.15
2023-03-01T23:06:55.306Z,32.85
2023-03-01T23:09:27.438Z,33.92
2023-03-01T23:11:54.858Z,36.28
2023-03-01T23:14:28.289Z,34.13
2023-03-01T23:16:59.864Z,33.25
2023-03-01T23:19:27.400Z,31.75
2023-03-01T23:21:57.563Z,34.88
2023-03-01T23:24:32.140Z,32.47
2023-03-01T23:27:01.728Z,34.13
2023-03-01T23:29:32.599Z,38.60
2023-03-01T23:32:00.849Z,34.88
2023-03-01T23:34:27.926Z,31.95
2023-03-01T23:36:57.226Z,36.15
2023-03-01T23:39:23.922Z,35.53
2023-03-01T23:41:50.808Z,33.20
2023-03-01T23:44:20.104Z,34.05
2023-03-01T23:47:03.464Z,35.70
2023-03-01T23:49:33.389Z,35.28
2023-03-01T23:52:01.132Z,40.55
2023-03-01T23:54:28.894Z,32.00
2023-03-01T23:56:55.760Z,32.85
2023-03-01T23:59:27.900Z,32.78
